Skip Navigation Links
NOAA logo - Click to go to the NOAA homepage
NOAA's National Weather Service
Alaska Aviation Weather Unit
  NWS logo - Click to go to the NWS homepage
Left Navbar Graphic     15 AKDT = 23 GMT

   
NOAA is celebrating 200 years of science, service, and stewardship. Visit the NOAA 200th celebration Web site to learn more.
USA.gov is the U.S. Government's official Web portal to all Federal, state and local government Web resources and services.
Facebook
NWS on Facebook

Important Change Regarding the AAWU Web Presence

 

Over the last several months, the AAWU has been working to navigate its webpages to a nationally supported server. Security, as well as other needs, have necessitated the change.  We have been given an extension for the site changeover while we diligently work at addressing feedback received. As of July 14, 2017, aawu.arh.noaa.gov will be discontinued. The new AAWU web address is weather.gov/aawu. It is now live and will run in-parallel with the old site until it is discontinued on July 14, 2017. Please continue to send any feedback or questions regarding the new webpages to nws.ar.aawu.webauthors@noaa.gov.  Thank you for your patience during this time of transition.
AAWU Home :: Display TAF Add Bookmark
TAF PAWG 192327Z 2000/2024  VRB04KT P6SM -SHRA SCT015 OVC050
     FM200600 16005KT 5SM -SHRA SCT015 OVC025
     FM201500 13006KT P6SM -SHRA SCT020 OVC040
      AMD LTD TO CLD VIS AND WIND 2006/2015=

7901
FTAK31 PAJN 192327
TAFAYA
TAF
METAR PAWG 191755Z 00000KT 10SM FEW010 BKN045 OVC05 06/05 A2897=

METAR PAWG 191756Z 00000KT 10SM FEW050 OVC060 06/05 A2898 RMK AO2
 RAE51 SLP812 P0001 60006 T00610050 10061 20044 51022=

METAR PAWG 191855Z 33004KT 10SM FEW010 BKN045 OVC060 06/05 A2898=

METAR PAWG 191856Z 32003KT 10SM FEW010 BKN045 OVC055 06/05 A2898 RMK
 AO2 SLP815 T00610050=

METAR PAWG 191955Z 00000KT 10SM FEW010 BKN055 OVC080 07/04 A2901=

METAR PAWG 192055Z 00000KT 10SM FEW010 SCT035 BKN065 07/05 A2903=

METAR PAWG 192156Z 33003KT 10SM FEW010 SCT035 BKN065 07/05 A2904=

METAR PAWG 192256Z 30004KT 10SM SCT030 BKN050 07/05 A2906=


NOAA's National Weather Service
Alaska Aviation Weather Unit
6930 Sand Lake Road
Anchorage, AK 99502-1845
Disclaimer
Credits
Glossary
Privacy Policy
About Us
Career Opportunities
Contact AAWU Internet Services Site last modified: April, 17th 2012